Terminal Aerodrome Forecast
Issued by NWS St Louis, MO

Home | Current Version | Previous Version | Graphics & Text | Print | Product List | Glossary On
Versions: 1 2 3 4 5 6 7 8 9 10 11 12 13 14 15 16 17 18 19 20 21
000
FTUS43 KLSX 161700
TAFCOU
TAF
KCOU 161720Z 1618/1718 29016G26KT P6SM OVC012
     FM161900 30014G24KT P6SM OVC025
     FM170000 29010KT P6SM OVC025
     FM170600 31006KT P6SM BKN200=

USA.gov is the U.S. government's official web portal to all federal, state and local government web resources and services.